Time;durP1;ratioP1;P1;durP2;ratioP2;P2;SDS_P1;SDS_P2;PMS_P1;PMS_P2;Temp;Humidity;BMP_temperature;BMP_pressure;BME280_temperature;BME280_humidity;BME280_pressure;Samples;Min_cycle;Max_cycle;Signal;HPM_P1;HPM_P2
2022/05/22 00:00:28;;;;;;;1.00;1.00;;;11.50;26.60;;;;;;4990322;28;34171;-80
2022/05/22 00:02:54;;;;;;;1.17;0.93;;;11.40;26.50;;;;;;4966646;28;35032;-79
2022/05/22 00:05:22;;;;;;;1.45;1.00;;;11.40;26.60;;;;;;4992530;28;34313;-80
2022/05/22 00:07:48;;;;;;;0.90;0.75;;;11.40;27.50;;;;;;4976641;28;34157;-80
2022/05/22 00:10:15;;;;;;;1.10;0.88;;;11.30;26.80;;;;;;4975409;28;34002;-80
2022/05/22 00:12:41;;;;;;;1.67;0.75;;;11.30;26.90;;;;;;4979698;28;36025;-80
2022/05/22 00:15:09;;;;;;;0.70;0.70;;;11.30;27.00;;;;;;4993316;28;34134;-80
2022/05/22 00:17:35;;;;;;;1.50;0.88;;;11.20;27.00;;;;;;4993102;28;34518;-80
2022/05/22 00:20:02;;;;;;;1.40;1.20;;;11.20;27.10;;;;;;5000678;28;34100;-80
2022/05/22 00:22:28;;;;;;;0.95;0.95;;;11.10;27.10;;;;;;4991899;28;35885;-80
2022/05/22 00:24:55;;;;;;;3.33;1.20;;;11.10;27.20;;;;;;4976637;28;34003;-80
2022/05/22 00:27:22;;;;;;;1.75;1.00;;;11.10;27.20;;;;;;4978874;28;34235;-81
2022/05/22 00:29:48;;;;;;;0.90;0.90;;;11.00;27.20;;;;;;4977911;28;34405;-80
2022/05/22 00:32:14;;;;;;;0.80;0.80;;;11.00;27.30;;;;;;4989295;28;35491;-80
2022/05/22 00:34:40;;;;;;;0.95;0.90;;;11.00;27.50;;;;;;4996138;28;34305;-79
2022/05/22 00:37:06;;;;;;;2.10;1.10;;;10.90;27.70;;;;;;4997839;28;34181;-80
2022/05/22 00:39:32;;;;;;;2.80;1.08;;;10.90;27.80;;;;;;4996732;28;33981;-81
2022/05/22 00:41:58;;;;;;;3.38;1.00;;;10.80;28.30;;;;;;5006792;28;35176;-80
2022/05/22 00:44:25;;;;;;;2.85;0.77;;;10.80;27.80;;;;;;4959778;28;34014;-80
2022/05/22 00:46:51;;;;;;;1.00;0.95;;;10.80;27.80;;;;;;4965838;28;34144;-79
2022/05/22 00:49:29;;;;;;;2.58;0.80;;;10.80;27.90;;;;;;4966452;28;34612;-79
2022/05/22 00:52:03;;;;;;;0.80;0.73;;;10.80;28.30;;;;;;4975997;28;35710;-79
2022/05/22 00:54:36;;;;;;;1.38;0.90;;;10.70;28.60;;;;;;4977018;28;34402;-79
2022/05/22 00:57:17;;;;;;;2.88;1.00;;;10.70;28.60;;;;;;4969554;28;34113;-80
2022/05/22 00:59:48;;;;;;;1.95;1.10;;;10.70;28.50;;;;;;5006673;28;34144;-80
2022/05/22 01:02:15;;;;;;;1.15;1.05;;;10.60;28.40;;;;;;4988202;28;36721;-79
2022/05/22 01:04:44;;;;;;;2.67;1.00;;;10.60;28.10;;;;;;4980944;28;34286;-80
2022/05/22 01:07:11;;;;;;;3.28;1.00;;;10.60;28.30;;;;;;4984915;28;34130;-80
2022/05/22 01:09:37;;;;;;;1.10;1.00;;;10.60;28.50;;;;;;4985385;28;34334;-80
2022/05/22 01:12:08;;;;;;;1.85;0.98;;;10.60;28.50;;;;;;4997582;28;36529;-80
2022/05/22 01:14:35;;;;;;;2.28;1.20;;;10.60;28.60;;;;;;4990473;28;34096;-80
2022/05/22 01:17:04;;;;;;;3.47;1.02;;;10.50;28.60;;;;;;4976512;28;34183;-80
2022/05/22 01:19:30;;;;;;;2.30;1.23;;;10.50;28.80;;;;;;4960162;28;34493;-80
2022/05/22 01:22:02;;;;;;;1.38;1.05;;;10.50;28.70;;;;;;4993733;28;35575;-80
2022/05/22 01:24:28;;;;;;;0.90;0.70;;;10.40;29.20;;;;;;4975689;28;34382;-79
2022/05/22 01:26:57;;;;;;;1.77;0.95;;;10.40;28.60;;;;;;4991273;28;34167;-80
2022/05/22 01:29:23;;;;;;;2.05;0.88;;;10.40;28.60;;;;;;4957581;28;34561;-80
2022/05/22 01:31:48;;;;;;;1.92;1.10;;;10.40;28.70;;;;;;4958473;28;35828;-80
2022/05/22 01:34:15;;;;;;;1.52;0.90;;;10.30;28.80;;;;;;4991548;28;34164;-80
2022/05/22 01:36:40;;;;;;;1.15;1.05;;;10.30;28.80;;;;;;4996273;28;34096;-80
2022/05/22 01:39:07;;;;;;;0.80;0.80;;;10.30;28.80;;;;;;4993953;28;34134;-80
2022/05/22 01:41:33;;;;;;;1.60;0.90;;;10.20;28.90;;;;;;4975503;28;35964;-80
2022/05/22 01:44:00;;;;;;;2.28;1.05;;;10.20;28.90;;;;;;4991400;28;34213;-80
2022/05/22 01:46:26;;;;;;;1.10;1.00;;;10.10;29.00;;;;;;4988487;28;34226;-79
2022/05/22 01:48:52;;;;;;;2.85;0.95;;;10.10;29.10;;;;;;4995552;28;34345;-80
2022/05/22 01:51:18;;;;;;;1.77;0.98;;;10.10;29.10;;;;;;4992812;28;35547;-80
2022/05/22 01:53:44;;;;;;;1.05;0.93;;;10.00;29.20;;;;;;5013764;28;34326;-80
2022/05/22 01:56:10;;;;;;;1.92;1.00;;;10.00;29.30;;;;;;5009790;28;33998;-79
2022/05/22 01:58:36;;;;;;;1.20;1.10;;;10.00;29.30;;;;;;4981955;28;34076;-79
2022/05/22 02:01:02;;;;;;;1.58;1.10;;;10.00;29.40;;;;;;4993010;28;36542;-80
2022/05/22 02:03:28;;;;;;;0.88;0.88;;;9.90;29.30;;;;;;4996581;28;34452;-79
2022/05/22 02:05:54;;;;;;;0.82;0.82;;;9.90;29.30;;;;;;4988368;28;34338;-79
2022/05/22 02:08:21;;;;;;;2.55;1.08;;;9.80;29.60;;;;;;4997863;28;34174;-80
2022/05/22 02:11:04;;;;;;;0.90;0.90;;;9.90;29.70;;;;;;4976908;28;36677;-80
2022/05/22 02:13:34;;;;;;;1.88;1.20;;;9.80;29.80;;;;;;4996820;28;34658;-79
2022/05/22 02:16:00;;;;;;;1.35;0.98;;;9.80;30.00;;;;;;4980765;28;34071;-80
2022/05/22 02:18:26;;;;;;;1.27;0.98;;;9.80;29.90;;;;;;5010781;28;34383;-80
2022/05/22 02:20:52;;;;;;;1.13;0.90;;;9.70;29.80;;;;;;4997021;28;36536;-79
2022/05/22 02:23:20;;;;;;;1.05;1.00;;;9.70;29.90;;;;;;5007381;28;34285;-79
2022/05/22 02:25:50;;;;;;;1.75;0.90;;;9.70;29.90;;;;;;4980965;28;34279;-79
2022/05/22 02:28:17;;;;;;;2.53;0.93;;;9.70;30.10;;;;;;4996652;28;34407;-80
2022/05/22 02:30:47;;;;;;;5.45;1.20;;;9.70;29.80;;;;;;4997242;28;35879;-80
2022/05/22 02:33:13;;;;;;;0.70;0.70;;;9.60;29.90;;;;;;5008396;28;33999;-79
2022/05/22 02:35:40;;;;;;;0.70;0.70;;;9.50;29.70;;;;;;5030992;28;33986;-79
2022/05/22 02:38:06;;;;;;;4.05;0.90;;;9.50;29.70;;;;;;4993407;28;34095;-79
2022/05/22 02:40:33;;;;;;;1.10;0.90;;;9.50;29.80;;;;;;5012832;28;35718;-79
2022/05/22 02:43:00;;;;;;;2.63;0.80;;;9.50;29.80;;;;;;5011489;28;34298;-80
2022/05/22 02:45:30;;;;;;;2.53;1.00;;;9.50;29.90;;;;;;4996951;28;34404;-79
2022/05/22 02:47:57;;;;;;;2.72;0.88;;;9.40;30.10;;;;;;4998459;28;34569;-79
2022/05/22 02:50:26;;;;;;;1.67;0.95;;;9.40;29.90;;;;;;5008640;28;36337;-80
2022/05/22 02:52:52;;;;;;;1.40;1.17;;;9.40;30.10;;;;;;5030020;28;35304;-79
2022/05/22 02:55:19;;;;;;;2.33;1.10;;;9.30;30.20;;;;;;4987364;28;34062;-79
2022/05/22 02:57:45;;;;;;;0.90;0.90;;;9.30;30.20;;;;;;4993978;28;34755;-79
2022/05/22 03:00:16;;;;;;;1.23;0.80;;;9.30;30.20;;;;;;5025148;28;35675;-80
2022/05/22 03:02:42;;;;;;;1.27;0.98;;;9.20;30.30;;;;;;4986208;28;34208;-80
2022/05/22 03:05:08;;;;;;;4.00;0.80;;;9.20;30.20;;;;;;4997290;28;34068;-80
2022/05/22 03:07:36;;;;;;;0.88;0.88;;;9.20;30.20;;;;;;5021757;28;34081;-80
2022/05/22 03:10:04;;;;;;;3.22;1.20;;;9.20;30.40;;;;;;5005390;28;35607;-79
2022/05/22 03:12:30;;;;;;;1.40;0.98;;;9.10;30.50;;;;;;5009708;28;34371;-80
2022/05/22 03:14:58;;;;;;;1.30;0.82;;;9.10;30.60;;;;;;5010455;28;34167;-80
2022/05/22 03:17:25;;;;;;;1.10;0.80;;;9.10;30.80;;;;;;5009951;28;34039;-80
2022/05/22 03:19:51;;;;;;;1.13;0.90;;;9.10;30.80;;;;;;5010164;28;35730;-80
2022/05/22 03:22:18;;;;;;;3.42;0.90;;;9.10;30.70;;;;;;5014173;28;34034;-80
2022/05/22 03:24:44;;;;;;;0.93;0.93;;;9.10;30.80;;;;;;4996740;28;33780;-80
2022/05/22 03:27:13;;;;;;;2.30;1.15;;;9.10;30.70;;;;;;5010238;28;34209;-80
2022/05/22 03:29:40;;;;;;;1.35;0.75;;;9.10;30.90;;;;;;4993507;28;35632;-80
2022/05/22 03:32:07;;;;;;;1.23;1.10;;;9.10;30.90;;;;;;4994021;28;34116;-80
2022/05/22 03:34:34;;;;;;;1.23;1.13;;;9.10;31.00;;;;;;4999758;28;34412;-79
2022/05/22 03:37:01;;;;;;;1.88;1.17;;;9.10;31.10;;;;;;4990985;28;34352;-79
2022/05/22 03:39:27;;;;;;;1.70;1.38;;;9.20;31.00;;;;;;4993575;28;35910;-79
2022/05/22 03:41:54;;;;;;;1.20;1.10;;;9.20;31.20;;;;;;5009867;28;34189;-80
2022/05/22 03:44:20;;;;;;;1.55;1.00;;;9.20;31.50;;;;;;5009330;28;34115;-79
2022/05/22 03:46:46;;;;;;;1.00;1.00;;;9.20;31.30;;;;;;5022230;28;34115;-79
2022/05/22 03:49:12;;;;;;;2.65;1.17;;;9.20;31.30;;;;;;4981890;28;35532;-79
2022/05/22 03:51:39;;;;;;;1.73;1.33;;;9.20;31.30;;;;;;4990533;28;34201;-80
2022/05/22 03:54:06;;;;;;;2.17;1.17;;;9.20;31.20;;;;;;4988812;28;34393;-80
2022/05/22 03:56:32;;;;;;;1.20;1.15;;;9.20;31.30;;;;;;4993447;28;34032;-80
2022/05/22 03:58:58;;;;;;;3.85;1.10;;;9.30;31.30;;;;;;5009256;28;36781;-80
2022/05/22 04:01:25;;;;;;;1.45;1.00;;;9.30;31.40;;;;;;5007030;28;34071;-80
2022/05/22 04:03:51;;;;;;;1.17;1.08;;;9.30;31.40;;;;;;5007032;28;34145;-79
2022/05/22 04:06:16;;;;;;;2.63;1.30;;;9.30;31.40;;;;;;5002272;28;34103;-79
2022/05/22 04:08:42;;;;;;;1.33;1.23;;;9.30;31.40;;;;;;5027722;28;34948;-80
2022/05/22 04:11:12;;;;;;;0.95;0.95;;;9.30;31.40;;;;;;4993176;28;34313;-80
2022/05/22 04:13:38;;;;;;;1.20;1.00;;;9.30;31.40;;;;;;4993935;28;34134;-80
2022/05/22 04:16:04;;;;;;;1.33;1.05;;;9.40;31.30;;;;;;4994632;28;34119;-79
2022/05/22 04:18:31;;;;;;;0.93;0.93;;;9.30;31.30;;;;;;4961668;28;36253;-79
2022/05/22 04:20:57;;;;;;;0.95;0.93;;;9.30;31.40;;;;;;5008682;28;34236;-80
2022/05/22 04:26:10;;;;;;;4.93;1.23;;;9.40;31.50;;;;;;4993120;28;34627;-79
2022/05/22 04:28:37;;;;;;;0.88;0.88;;;9.40;31.40;;;;;;5004054;28;35515;-79
2022/05/22 04:31:04;;;;;;;1.00;1.00;;;9.40;31.40;;;;;;5009706;28;34117;-79
2022/05/22 04:33:31;;;;;;;1.48;1.05;;;9.50;31.50;;;;;;5027661;28;33659;-79
2022/05/22 04:35:57;;;;;;;2.03;1.25;;;9.50;31.50;;;;;;5010579;28;34394;-79
2022/05/22 04:38:23;;;;;;;1.23;1.10;;;9.50;31.60;;;;;;5012921;28;34918;-80
2022/05/22 04:40:56;;;;;;;1.30;1.10;;;9.60;31.40;;;;;;4990723;28;34276;-80
2022/05/22 04:43:23;;;;;;;2.25;1.20;;;9.70;31.80;;;;;;4999303;28;34392;-80
2022/05/22 04:45:50;;;;;;;1.10;1.00;;;9.70;31.50;;;;;;4979496;28;34608;-80
2022/05/22 04:48:17;;;;;;;1.30;1.20;;;9.80;31.50;;;;;;5007225;28;34591;-80
2022/05/22 04:50:46;;;;;;;2.05;1.17;;;9.80;31.60;;;;;;5004641;28;34022;-81
2022/05/22 04:53:13;;;;;;;1.45;1.20;;;9.90;31.90;;;;;;4990584;28;34475;-80
2022/05/22 04:55:39;;;;;;;1.17;1.10;;;9.90;31.60;;;;;;4997463;28;34347;-79
2022/05/22 04:58:05;;;;;;;1.23;1.13;;;9.90;31.70;;;;;;5002649;28;34305;-79
2022/05/22 05:00:31;;;;;;;2.30;1.20;;;10.00;31.70;;;;;;4993982;28;34126;-79
2022/05/22 05:02:57;;;;;;;1.30;1.15;;;10.00;31.70;;;;;;5000483;28;34233;-79
2022/05/22 05:05:23;;;;;;;1.80;1.23;;;10.00;31.80;;;;;;4971197;28;34072;-79
2022/05/22 05:07:49;;;;;;;1.10;1.05;;;10.10;31.80;;;;;;4999849;28;36400;-79
2022/05/22 05:10:15;;;;;;;2.85;1.63;;;10.20;31.70;;;;;;5010582;28;34117;-79
2022/05/22 05:12:42;;;;;;;2.08;1.30;;;10.50;31.70;;;;;;5002677;28;34493;-79
2022/05/22 05:15:11;;;;;;;1.73;1.50;;;10.90;31.20;;;;;;5006758;28;34134;-80
2022/05/22 05:17:40;;;;;;;1.40;1.30;;;11.40;30.30;;;;;;5001229;28;34477;-80
2022/05/22 05:20:07;;;;;;;1.50;1.38;;;12.30;29.10;;;;;;4980452;28;34255;-80
2022/05/22 05:22:33;;;;;;;2.17;1.10;;;13.10;27.00;;;;;;4993387;28;34391;-80
2022/05/22 05:24:59;;;;;;;1.58;1.48;;;14.00;25.20;;;;;;4992975;28;34245;-80
2022/05/22 05:27:26;;;;;;;1.48;1.30;;;15.00;23.50;;;;;;4998583;28;35183;-80
2022/05/22 05:29:52;;;;;;;1.55;1.10;;;15.80;21.80;;;;;;4999653;28;34155;-79
2022/05/22 05:32:20;;;;;;;1.27;1.10;;;16.60;20.40;;;;;;4995254;28;34186;-80
2022/05/22 05:34:46;;;;;;;1.63;1.10;;;17.20;19.60;;;;;;5003675;28;34272;-79
2022/05/22 05:37:12;;;;;;;2.08;1.00;;;18.00;18.70;;;;;;4998272;28;35613;-80
2022/05/22 05:39:38;;;;;;;6.65;1.50;;;18.60;17.80;;;;;;5000737;28;34380;-80
2022/05/22 05:42:04;;;;;;;2.42;1.20;;;19.20;16.90;;;;;;4995178;28;34891;-81
2022/05/22 05:44:33;;;;;;;1.70;1.13;;;19.70;16.00;;;;;;5004583;28;34313;-80
2022/05/22 05:46:59;;;;;;;2.05;1.17;;;20.20;15.30;;;;;;5008241;28;36096;-81
2022/05/22 05:49:25;;;;;;;3.45;1.30;;;20.70;15.00;;;;;;4996487;28;34159;-81
2022/05/22 05:51:51;;;;;;;0.90;0.85;;;21.00;14.20;;;;;;4971084;28;33938;-80
2022/05/22 05:54:17;;;;;;;2.95;1.10;;;21.20;13.80;;;;;;5010454;28;34141;-81
2022/05/22 05:56:43;;;;;;;1.58;1.00;;;21.50;13.50;;;;;;4990263;28;36334;-81
2022/05/22 05:59:09;;;;;;;2.50;1.20;;;21.50;13.00;;;;;;5002306;28;34304;-80
2022/05/22 06:01:35;;;;;;;2.60;1.30;;;21.60;12.60;;;;;;5006333;28;34230;-80
2022/05/22 06:04:02;;;;;;;2.15;1.00;;;21.90;12.50;;;;;;4978555;28;34179;-82
2022/05/22 06:06:29;;;;;;;1.80;1.27;;;22.10;12.10;;;;;;5006574;28;34129;-82
2022/05/22 06:08:55;;;;;;;1.83;1.20;;;22.20;11.60;;;;;;4999625;28;34063;-82
2022/05/22 06:11:22;;;;;;;1.10;1.00;;;22.20;11.60;;;;;;4999568;28;34376;-80
2022/05/22 06:13:48;;;;;;;1.30;1.20;;;22.30;11.50;;;;;;4989155;28;34628;-81
2022/05/22 06:16:14;;;;;;;1.20;1.10;;;22.50;11.30;;;;;;4974135;28;35715;-80
2022/05/22 06:18:40;;;;;;;2.15;1.10;;;22.40;11.10;;;;;;4986865;28;34159;-80
2022/05/22 06:21:09;;;;;;;1.30;1.20;;;22.60;11.00;;;;;;4989535;28;34298;-81
2022/05/22 06:23:35;;;;;;;1.38;1.23;;;22.80;10.50;;;;;;4952909;28;34127;-79
2022/05/22 06:26:01;;;;;;;1.38;1.10;;;22.90;11.00;;;;;;4975516;28;36254;-79
2022/05/22 06:28:27;;;;;;;1.35;1.00;;;23.20;2.30;;;;;;4980863;28;34156;-78
2022/05/22 06:30:54;;;;;;;1.42;1.30;;;23.50;2.00;;;;;;4988935;28;34420;-79
2022/05/22 06:33:20;;;;;;;1.35;1.05;;;23.80;1.70;;;;;;4990225;28;34125;-80
2022/05/22 06:35:47;;;;;;;1.38;0.95;;;24.00;1.40;;;;;;4972582;28;35620;-79
2022/05/22 06:39:49;;;;;;;2.15;1.05;;;24.00;1.00;;;;;;4966016;28;33722;-80
2022/05/22 06:41:03;;;;;;;1.67;1.20;;;24.00;1.00;;;;;;4981586;28;34104;-80
2022/05/22 06:43:29;;;;;;;1.70;1.20;;;24.30;1.00;;;;;;4990941;28;34197;-79
2022/05/22 06:45:55;;;;;;;1.20;1.02;;;24.60;1.00;;;;;;4972744;28;35575;-80
2022/05/22 06:48:21;;;;;;;1.30;1.17;;;25.00;1.00;;;;;;4988196;28;33860;-80
2022/05/22 06:50:47;;;;;;;5.68;1.55;;;25.20;1.00;;;;;;5012833;28;34408;-80
2022/05/22 06:53:13;;;;;;;3.20;1.38;;;25.10;1.00;;;;;;5009350;28;34463;-81
2022/05/22 06:55:40;;;;;;;1.42;1.33;;;25.00;1.00;;;;;;5010945;28;35550;-79
2022/05/22 06:58:07;;;;;;;1.40;1.30;;;24.80;1.00;;;;;;5011548;28;34096;-80
2022/05/22 07:00:33;;;;;;;1.92;1.20;;;24.80;1.00;;;;;;4997777;28;34416;-81
2022/05/22 07:02:59;;;;;;;2.50;1.42;;;24.70;1.00;;;;;;4981307;28;34357;-80
2022/05/22 07:05:26;;;;;;;4.07;1.73;;;24.40;1.00;;;;;;5029453;28;34310;-81
2022/05/22 07:07:52;;;;;;;1.50;1.40;;;24.40;1.00;;;;;;5003444;28;34335;-79
2022/05/22 07:11:38;;;;;;;2.33;1.73;;;24.60;1.00;;;;;;5003289;28;34127;-80
2022/05/22 07:13:05;;;;;;;3.65;1.10;;;24.50;1.00;;;;;;5009324;28;34524;-79
2022/05/22 07:15:31;;;;;;;2.55;1.30;;;24.70;1.00;;;;;;4995030;28;35807;-80
2022/05/22 07:17:57;;;;;;;1.77;1.40;;;25.00;1.00;;;;;;5027091;28;34149;-79
2022/05/22 07:20:23;;;;;;;1.50;1.40;;;25.20;1.00;;;;;;5027976;28;34301;-80
2022/05/22 07:22:50;;;;;;;1.13;1.10;;;25.20;1.00;;;;;;5018657;28;34261;-80
2022/05/22 07:25:17;;;;;;;4.40;1.40;;;25.30;1.00;;;;;;4994219;28;35494;-80
2022/05/22 07:27:42;;;;;;;1.80;1.50;;;25.40;1.00;;;;;;4978284;28;34250;-79
2022/05/22 07:30:09;;;;;;;2.13;1.40;;;25.50;1.00;;;;;;4992203;28;34150;-80
2022/05/22 07:32:35;;;;;;;2.90;1.48;;;25.50;1.00;;;;;;5004646;28;34180;-80
2022/05/22 07:35:00;;;;;;;2.00;1.40;;;25.50;1.00;;;;;;5024062;28;34254;-80
2022/05/22 07:37:26;;;;;;;3.10;1.90;;;25.50;1.00;;;;;;4991686;28;34392;-79
2022/05/22 07:39:52;;;;;;;3.13;1.50;;;25.60;1.00;;;;;;4993209;28;34173;-80
2022/05/22 07:42:18;;;;;;;2.42;1.30;;;25.90;1.00;;;;;;4991726;28;34332;-79
2022/05/22 07:44:44;;;;;;;2.60;1.25;;;26.10;1.00;;;;;;4975180;28;35787;-79
2022/05/22 07:47:10;;;;;;;3.03;1.40;;;26.10;1.00;;;;;;5002713;28;34339;-80
2022/05/22 07:52:17;;;;;;;3.38;1.35;;;26.20;1.00;;;;;;4999415;28;34050;-79
2022/05/22 07:54:43;;;;;;;3.28;1.70;;;26.30;1.00;;;;;;4991883;28;36616;-79
2022/05/22 07:57:09;;;;;;;3.95;1.60;;;26.50;1.00;;;;;;5010676;28;34341;-79
2022/05/22 07:59:36;;;;;;;2.58;1.20;;;26.70;1.00;;;;;;4969396;28;34528;-78
2022/05/22 08:02:04;;;;;;;3.15;1.50;;;26.80;1.00;;;;;;4988734;28;34123;-80
2022/05/22 08:04:30;;;;;;;1.05;1.00;;;26.90;1.00;;;;;;4991366;28;34960;-80
2022/05/22 08:06:56;;;;;;;1.95;1.20;;;26.90;1.00;;;;;;4967675;28;34156;-79
2022/05/22 08:09:22;;;;;;;1.90;1.40;;;27.00;1.00;;;;;;5009753;28;34116;-79
2022/05/22 08:11:48;;;;;;;2.05;1.30;;;26.90;1.00;;;;;;4957967;28;34128;-81
2022/05/22 08:14:15;;;;;;;2.25;1.20;;;26.90;1.00;;;;;;4972844;28;35979;-79
2022/05/22 08:16:42;;;;;;;2.30;1.30;;;27.10;1.00;;;;;;4956708;28;34506;-79
2022/05/22 08:19:09;;;;;;;1.77;1.38;;;27.30;1.00;;;;;;4973072;28;34017;-78
2022/05/22 08:21:35;;;;;;;1.70;1.10;;;27.60;1.00;;;;;;4971932;28;34416;-79
2022/05/22 08:24:01;;;;;;;4.15;1.45;;;27.80;1.00;;;;;;4972681;28;35569;-79
2022/05/22 08:26:27;;;;;;;2.25;1.17;;;27.70;1.00;;;;;;4973813;28;34195;-80
2022/05/22 08:28:54;;;;;;;3.28;1.10;;;27.80;1.00;;;;;;4971516;28;34259;-79
2022/05/22 08:31:20;;;;;;;2.78;1.33;;;28.00;1.00;;;;;;4989589;28;34477;-78
2022/05/22 08:33:46;;;;;;;1.38;1.17;;;28.20;1.00;;;;;;4988640;28;35592;-79
2022/05/22 08:36:12;;;;;;;2.22;0.82;;;28.40;1.00;;;;;;4995446;28;33788;-79
2022/05/22 08:38:38;;;;;;;3.20;0.90;;;28.60;1.00;;;;;;4974712;28;33827;-78
2022/05/22 08:41:28;;;;;;;2.13;0.90;;;28.70;1.00;;;;;;5008711;28;33723;-78
2022/05/22 08:44:18;;;;;;;2.25;1.00;;;28.90;1.00;;;;;;4984640;28;35547;-78
2022/05/22 08:47:06;;;;;;;2.75;0.68;;;29.20;1.00;;;;;;4987709;28;34028;-78
2022/05/22 08:49:54;;;;;;;1.05;0.70;;;29.00;1.00;;;;;;4962539;28;34151;-79
2022/05/22 08:52:51;;;;;;;2.58;0.70;;;28.80;1.00;;;;;;4985013;28;34207;-79
2022/05/22 08:55:24;;;;;;;2.10;0.68;;;28.80;1.00;;;;;;4977748;28;35877;-78
2022/05/22 09:01:04;;;;;;;1.27;0.93;;;29.00;1.00;;;;;;4992582;28;34202;-79
2022/05/22 09:03:38;;;;;;;2.17;1.00;;;29.10;1.00;;;;;;4960895;28;34563;-78
2022/05/22 09:06:05;;;;;;;1.15;0.90;;;29.30;1.00;;;;;;4973228;28;35634;-78
2022/05/22 09:08:49;;;;;;;1.20;0.80;;;29.40;1.00;;;;;;4978333;28;34461;-79
2022/05/22 09:11:34;;;;;;;1.08;0.90;;;29.50;1.00;;;;;;5010237;28;34378;-79
2022/05/22 09:14:09;;;;;;;1.33;0.95;;;29.60;1.00;;;;;;4966514;28;34180;-78
2022/05/22 09:16:54;;;;;;;1.92;0.95;;;29.50;1.00;;;;;;4986727;28;35748;-78
2022/05/22 09:19:33;;;;;;;1.50;0.80;;;29.40;1.00;;;;;;4977406;28;34218;-77
2022/05/22 09:22:14;;;;;;;1.10;0.80;;;29.10;1.00;;;;;;4992169;28;34325;-77
2022/05/22 09:25:01;;;;;;;0.98;0.95;;;28.80;1.00;;;;;;4976360;28;33996;-78
2022/05/22 09:27:43;;;;;;;2.28;0.77;;;28.70;1.00;;;;;;4959127;28;35966;-77
2022/05/22 09:30:19;;;;;;;2.55;0.90;;;28.70;1.00;;;;;;4992304;28;34645;-77
2022/05/22 09:33:00;;;;;;;2.05;1.20;;;28.70;1.00;;;;;;4990904;28;34080;-76
2022/05/22 09:35:57;;;;;;;1.15;0.80;;;28.40;1.00;;;;;;5011690;28;34419;-77
2022/05/22 09:38:44;;;;;;;2.05;0.98;;;28.20;1.00;;;;;;4999623;28;34146;-77
2022/05/22 09:41:32;;;;;;;3.28;1.40;;;28.10;1.00;;;;;;4971603;28;34373;-76
2022/05/22 09:44:29;;;;;;;1.00;0.90;;;28.20;1.00;;;;;;4971195;28;34200;-76
2022/05/22 09:47:21;;;;;;;3.17;1.10;;;28.40;1.00;;;;;;4976812;28;34168;-77
2022/05/22 09:50:20;;;;;;;0.70;0.70;;;28.60;1.00;;;;;;4974148;28;35073;-77
2022/05/22 09:53:07;;;;;;;2.15;0.80;;;28.60;1.00;;;;;;4973187;28;34322;-76
2022/05/22 09:55:51;;;;;;;2.65;1.13;;;28.60;1.00;;;;;;4965047;28;34380;-76
2022/05/22 09:58:41;;;;;;;1.05;0.80;;;28.60;1.00;;;;;;4992918;28;34181;-76
2022/05/22 10:01:16;;;;;;;1.02;0.90;;;28.70;1.00;;;;;;4990678;28;35696;-76
2022/05/22 10:04:05;;;;;;;2.88;0.90;;;28.90;1.00;;;;;;4985129;28;34256;-77
2022/05/22 10:07:05;;;;;;;1.25;0.80;;;29.00;1.00;;;;;;4972915;28;34113;-77
2022/05/22 10:09:47;;;;;;;2.72;0.90;;;29.00;1.00;;;;;;4976057;28;34293;-76
2022/05/22 10:12:37;;;;;;;1.83;1.02;;;29.10;1.00;;;;;;4988117;28;35513;-76
2022/05/22 10:15:27;;;;;;;2.33;1.00;;;29.30;1.00;;;;;;4976520;28;34201;-76
2022/05/22 10:18:28;;;;;;;1.40;0.90;;;29.30;1.00;;;;;;4985535;28;34424;-74
2022/05/22 10:21:22;;;;;;;2.40;0.98;;;29.10;1.00;;;;;;4961332;28;33769;-76
2022/05/22 10:24:02;;;;;;;2.38;1.05;;;28.80;1.00;;;;;;4974218;28;35753;-75
2022/05/22 10:27:03;;;;;;;1.00;0.65;;;28.70;1.00;;;;;;4970370;28;34306;-76
2022/05/22 10:29:51;;;;;;;0.68;0.63;;;28.70;1.00;;;;;;4981940;28;34185;-76
2022/05/22 10:32:32;;;;;;;1.15;0.80;;;28.80;1.00;;;;;;4982985;28;34813;-75
2022/05/22 10:35:09;;;;;;;1.40;0.80;;;28.80;1.00;;;;;;4991254;28;35564;-76
2022/05/22 10:37:47;;;;;;;1.65;0.80;;;28.60;1.00;;;;;;4994588;28;34262;-76
2022/05/22 10:40:18;;;;;;;3.17;0.73;;;28.60;1.00;;;;;;4992409;28;34222;-78
2022/05/22 10:42:50;;;;;;;1.70;0.60;;;28.70;1.00;;;;;;4990377;28;34097;-76
2022/05/22 10:45:33;;;;;;;5.45;0.82;;;28.90;1.00;;;;;;4979189;28;35988;-76
2022/05/22 10:48:21;;;;;;;0.50;0.50;;;29.20;1.00;;;;;;4975141;28;34143;-76
2022/05/22 10:51:06;;;;;;;0.88;0.60;;;29.30;1.00;;;;;;5007742;28;34214;-76
2022/05/22 10:53:50;;;;;;;1.30;0.60;;;29.30;1.00;;;;;;4998127;28;34502;-77
2022/05/22 10:56:22;;;;;;;1.35;0.70;;;29.30;1.00;;;;;;4998278;28;36360;-77
2022/05/22 10:58:54;;;;;;;1.58;0.75;;;29.50;1.00;;;;;;4961086;28;34434;-76
2022/05/22 11:01:25;;;;;;;1.55;0.70;;;29.70;1.00;;;;;;4997929;28;34383;-76
2022/05/22 11:04:10;;;;;;;2.30;0.68;;;29.90;1.00;;;;;;5002512;28;34608;-75
2022/05/22 11:06:39;;;;;;;1.00;0.52;;;30.00;1.00;;;;;;4986918;28;34186;-76
2022/05/22 11:09:07;;;;;;;1.83;0.80;;;30.10;1.00;;;;;;4986872;28;34199;-77
2022/05/22 11:11:37;;;;;;;1.10;0.68;;;30.10;1.00;;;;;;4986513;28;34544;-76
2022/05/22 11:14:08;;;;;;;0.90;0.60;;;30.00;1.00;;;;;;4994165;28;34336;-79
2022/05/22 11:16:34;;;;;;;1.20;0.52;;;30.10;1.00;;;;;;5005338;28;34634;-77
2022/05/22 11:19:07;;;;;;;0.50;0.50;;;30.10;1.00;;;;;;5005992;28;34321;-76
2022/05/22 11:21:49;;;;;;;0.88;0.60;;;30.20;1.00;;;;;;5005109;28;34155;-77
2022/05/22 11:24:37;;;;;;;1.45;0.55;;;30.30;1.00;;;;;;4997157;28;34120;-77
2022/05/22 11:27:25;;;;;;;0.70;0.60;;;30.20;1.00;;;;;;4986979;28;35978;-73
2022/05/22 11:30:16;;;;;;;3.10;0.60;;;30.20;1.00;;;;;;4988801;28;34197;-73
2022/05/22 11:32:53;;;;;;;2.15;0.70;;;30.30;1.00;;;;;;4987605;28;34238;-76
2022/05/22 11:35:45;;;;;;;0.50;0.50;;;30.30;1.00;;;;;;5006858;28;34293;-77
2022/05/22 11:38:34;;;;;;;4.32;0.90;;;30.50;1.00;;;;;;4993339;28;35633;-77
2022/05/22 11:41:19;;;;;;;2.60;0.85;;;30.40;1.00;;;;;;5005247;28;34511;-77
2022/05/22 11:44:15;;;;;;;3.28;0.90;;;30.40;1.00;;;;;;5005472;28;34120;-76
2022/05/22 11:47:11;;;;;;;0.93;0.60;;;30.30;1.00;;;;;;5007580;28;34285;-76
2022/05/22 11:49:58;;;;;;;2.85;0.75;;;30.30;1.00;;;;;;4981551;28;35958;-78
2022/05/22 11:55:29;;;;;;;1.45;0.70;;;30.00;1.00;;;;;;4996568;28;34110;-76
2022/05/22 11:58:23;;;;;;;1.10;0.80;;;29.80;1.00;;;;;;4948964;28;34466;-77
2022/05/22 12:01:07;;;;;;;1.95;0.60;;;29.90;1.00;;;;;;4986389;28;35690;-75
2022/05/22 12:03:51;;;;;;;2.75;0.77;;;29.90;1.00;;;;;;4972790;28;34278;-76
2022/05/22 12:06:40;;;;;;;0.63;0.60;;;30.00;1.00;;;;;;4959222;28;34247;-76
2022/05/22 12:09:19;;;;;;;1.05;0.70;;;30.00;1.00;;;;;;4989461;28;34175;-75
2022/05/22 12:12:20;;;;;;;0.95;0.73;;;29.80;1.00;;;;;;4954902;28;36538;-74
2022/05/22 12:15:19;;;;;;;1.20;0.75;;;29.80;1.00;;;;;;4975838;28;34011;-75
2022/05/22 12:17:55;;;;;;;0.68;0.63;;;29.80;1.00;;;;;;4991703;28;34245;-76
2022/05/22 12:20:29;;;;;;;1.13;0.90;;;29.80;1.00;;;;;;4997479;28;34356;-75
2022/05/22 12:23:13;;;;;;;0.80;0.80;;;29.80;1.00;;;;;;4988459;28;36903;-77
2022/05/22 12:25:44;;;;;;;0.98;0.80;;;29.70;1.00;;;;;;4994702;28;34475;-76
2022/05/22 12:28:28;;;;;;;1.10;0.70;;;29.80;1.00;;;;;;4993178;28;34159;-75
2022/05/22 12:30:57;;;;;;;0.95;0.68;;;29.80;1.00;;;;;;4993911;28;34367;-76
2022/05/22 12:33:23;;;;;;;0.60;0.60;;;29.60;1.00;;;;;;4973241;28;36107;-74
2022/05/22 12:35:52;;;;;;;0.60;0.60;;;29.60;1.00;;;;;;4982262;28;34441;-75
2022/05/22 12:38:18;;;;;;;1.48;0.90;;;29.60;1.00;;;;;;4976864;28;34196;-76
2022/05/22 12:41:03;;;;;;;1.35;0.88;;;29.60;1.00;;;;;;4973204;28;34255;-76
2022/05/22 12:43:31;;;;;;;1.58;0.77;;;29.70;1.00;;;;;;4994617;28;36817;-76
2022/05/22 12:46:01;;;;;;;1.67;0.70;;;29.70;1.00;;;;;;4970465;28;34196;-77
2022/05/22 12:48:37;;;;;;;2.38;1.02;;;29.50;1.00;;;;;;4977542;28;34212;-75
2022/05/22 12:51:18;;;;;;;2.53;0.90;;;29.30;1.00;;;;;;4991576;28;34521;-76
2022/05/22 12:53:48;;;;;;;0.73;0.70;;;29.10;1.00;;;;;;4990893;28;36420;-74
2022/05/22 12:56:38;;;;;;;2.15;1.00;;;29.10;1.00;;;;;;4990539;28;34253;-77
2022/05/22 12:59:17;;;;;;;2.65;0.90;;;29.10;1.00;;;;;;4989626;28;34231;-78
2022/05/22 13:01:45;;;;;;;0.90;0.80;;;29.10;1.00;;;;;;4972854;28;34266;-77
2022/05/22 13:04:29;;;;;;;1.02;0.98;;;29.10;1.00;;;;;;4988177;28;35085;-76
2022/05/22 13:07:11;;;;;;;1.73;0.88;;;29.10;1.00;;;;;;4988153;28;34219;-77
2022/05/22 13:09:55;;;;;;;2.05;1.00;;;29.10;1.00;;;;;;4986662;28;34379;-78
2022/05/22 13:12:28;;;;;;;2.72;0.95;;;29.10;1.00;;;;;;4975252;28;34392;-77
2022/05/22 13:15:00;;;;;;;3.10;1.15;;;29.00;1.00;;;;;;4975515;28;35800;-77
2022/05/22 13:17:50;;;;;;;0.90;0.90;;;28.90;1.00;;;;;;4985155;28;34169;-76
2022/05/22 13:20:30;;;;;;;1.17;0.85;;;28.90;1.00;;;;;;4957111;28;34320;-77
2022/05/22 13:23:07;;;;;;;3.40;1.00;;;29.00;1.00;;;;;;4954133;28;34310;-75
2022/05/22 13:25:52;;;;;;;1.50;0.90;;;29.10;1.00;;;;;;4988719;28;35713;-76
2022/05/22 13:28:24;;;;;;;1.33;1.00;;;29.10;1.00;;;;;;4989507;28;33692;-77
2022/05/22 13:30:56;;;;;;;1.35;0.80;;;29.20;1.00;;;;;;4984694;28;34242;-77